Time;durP1;ratioP1;P1;durP2;ratioP2;P2;SDS_P1;SDS_P2;PMS_P1;PMS_P2;Temp;Humidity;BMP_temperature;BMP_pressure;BME280_temperature;BME280_humidity;BME280_pressure;Samples;Min_cycle;Max_cycle;Signal;HPM_P1;HPM_P2
2024/02/24 00:00:28;;;;;;;3.30;1.63;;;8.70;99.90;;;;;;5009846;28;20480;-68
2024/02/24 00:02:54;;;;;;;2.70;1.70;;;8.80;99.90;;;;;;5008529;28;20469;-68
2024/02/24 00:05:19;;;;;;;3.30;1.87;;;8.70;99.90;;;;;;5006501;28;20205;-68
2024/02/24 00:07:45;;;;;;;3.80;1.70;;;8.80;99.90;;;;;;5015258;28;20260;-68
2024/02/24 00:10:11;;;;;;;4.83;1.57;;;8.80;99.90;;;;;;5014140;28;20259;-68
2024/02/24 00:12:36;;;;;;;3.60;1.50;;;8.80;99.90;;;;;;5011960;28;20189;-68
2024/02/24 00:15:02;;;;;;;3.30;2.37;;;8.80;99.90;;;;;;5012924;28;20467;-68
2024/02/24 00:17:28;;;;;;;2.40;1.57;;;8.80;99.90;;;;;;5010735;28;20267;-68
2024/02/24 00:19:53;;;;;;;5.00;1.50;;;8.80;99.90;;;;;;5011796;28;20562;-68
2024/02/24 00:22:19;;;;;;;3.03;1.40;;;8.80;99.90;;;;;;5012401;28;20717;-68
2024/02/24 00:24:44;;;;;;;2.53;1.40;;;8.80;99.90;;;;;;5007834;28;20272;-68
2024/02/24 00:27:10;;;;;;;2.63;1.40;;;8.80;99.90;;;;;;5014325;28;20256;-68
2024/02/24 00:29:36;;;;;;;2.27;1.47;;;8.90;99.90;;;;;;5014574;28;20192;-68
2024/02/24 00:32:01;;;;;;;2.23;1.50;;;8.90;99.90;;;;;;5017562;28;20190;-68
2024/02/24 00:34:27;;;;;;;2.87;1.67;;;8.90;99.90;;;;;;5018112;28;20239;-68
2024/02/24 00:36:52;;;;;;;3.10;1.53;;;9.00;99.90;;;;;;5011787;28;20651;-68
2024/02/24 00:39:18;;;;;;;2.00;1.43;;;9.00;99.90;;;;;;5016897;28;20197;-68
2024/02/24 00:41:43;;;;;;;4.47;1.80;;;9.10;99.90;;;;;;5012331;28;20251;-68
2024/02/24 00:44:09;;;;;;;2.00;1.40;;;9.10;99.90;;;;;;5019188;28;20201;-68
2024/02/24 00:46:37;;;;;;;4.00;1.57;;;9.00;99.90;;;;;;5018536;28;20651;-68
2024/02/24 00:49:03;;;;;;;2.57;1.40;;;9.10;99.90;;;;;;5017296;28;20269;-68
2024/02/24 00:51:28;;;;;;;3.10;1.40;;;9.20;99.90;;;;;;5019170;28;20579;-68
2024/02/24 00:53:54;;;;;;;2.73;1.70;;;9.20;99.90;;;;;;5017771;28;20435;-69
2024/02/24 00:56:21;;;;;;;2.50;1.67;;;9.20;99.90;;;;;;5014215;28;20648;-69
2024/02/24 00:58:46;;;;;;;2.40;1.50;;;9.10;99.90;;;;;;5013554;28;20184;-67
2024/02/24 01:01:12;;;;;;;2.07;1.50;;;9.10;99.90;;;;;;5019952;28;20463;-68
2024/02/24 01:03:38;;;;;;;2.50;1.57;;;9.00;99.90;;;;;;5022195;28;20222;-68
2024/02/24 01:06:04;;;;;;;4.83;1.50;;;8.70;99.90;;;;;;5021199;28;20176;-65
2024/02/24 01:08:29;;;;;;;2.50;1.40;;;8.60;99.90;;;;;;5019452;28;20499;-66
2024/02/24 01:10:55;;;;;;;2.23;1.47;;;8.50;99.90;;;;;;5018352;28;20415;-65
2024/02/24 01:13:20;;;;;;;1.80;1.10;;;8.20;99.90;;;;;;5014928;28;20298;-67
2024/02/24 01:15:46;;;;;;;2.47;1.17;;;8.20;99.90;;;;;;5016870;28;20279;-66
2024/02/24 01:18:12;;;;;;;1.80;1.10;;;8.00;99.90;;;;;;5016045;28;20395;-67
2024/02/24 01:20:37;;;;;;;3.50;1.30;;;7.90;99.90;;;;;;5010540;28;20213;-66
2024/02/24 01:23:03;;;;;;;3.77;1.30;;;7.90;99.90;;;;;;5013238;28;20312;-66
2024/02/24 01:25:28;;;;;;;2.30;1.33;;;7.80;99.90;;;;;;5014253;28;20639;-66
2024/02/24 01:27:54;;;;;;;3.50;1.33;;;7.80;99.90;;;;;;5019160;28;20185;-66
2024/02/24 01:30:19;;;;;;;1.70;1.10;;;7.70;99.90;;;;;;5017974;28;20192;-68
2024/02/24 01:32:45;;;;;;;2.30;1.20;;;7.50;99.90;;;;;;5015782;28;20275;-67
2024/02/24 01:35:11;;;;;;;1.80;1.20;;;7.40;99.90;;;;;;5020282;28;20231;-68
2024/02/24 01:37:36;;;;;;;2.70;1.10;;;7.40;99.90;;;;;;5022765;28;20196;-67
2024/02/24 01:40:05;;;;;;;2.43;1.27;;;7.50;99.90;;;;;;5015945;28;20316;-68
2024/02/24 01:42:31;;;;;;;3.60;1.30;;;7.70;99.90;;;;;;5015571;28;20180;-68
2024/02/24 01:44:56;;;;;;;2.80;1.17;;;7.60;99.90;;;;;;5017857;28;20459;-68
2024/02/24 01:47:23;;;;;;;2.80;1.20;;;7.60;99.90;;;;;;5019690;28;20180;-66
2024/02/24 01:49:49;;;;;;;1.90;1.13;;;7.70;99.90;;;;;;5017445;28;20222;-66
2024/02/24 01:52:15;;;;;;;1.70;1.10;;;7.70;99.90;;;;;;5020668;28;20438;-67
2024/02/24 01:54:41;;;;;;;3.40;1.20;;;7.60;99.90;;;;;;5016972;28;20467;-67
2024/02/24 01:57:07;;;;;;;1.50;0.90;;;7.60;99.90;;;;;;5014364;28;20271;-67
2024/02/24 01:59:33;;;;;;;1.60;1.00;;;7.70;99.90;;;;;;5012754;28;20475;-67
2024/02/24 02:01:59;;;;;;;1.90;1.00;;;7.60;99.90;;;;;;5014382;28;20436;-66
2024/02/24 02:04:25;;;;;;;2.00;1.10;;;7.60;99.90;;;;;;5014481;28;20570;-66
2024/02/24 02:06:51;;;;;;;1.90;1.00;;;7.70;99.90;;;;;;5021782;28;20192;-66
2024/02/24 02:09:16;;;;;;;1.77;1.10;;;7.70;99.90;;;;;;5016652;28;20426;-67
2024/02/24 02:11:43;;;;;;;2.07;1.10;;;7.70;99.90;;;;;;5015521;28;20514;-67
2024/02/24 02:14:11;;;;;;;2.87;1.00;;;7.80;99.90;;;;;;5013337;28;20204;-67
2024/02/24 02:16:37;;;;;;;3.30;1.10;;;7.70;99.90;;;;;;5016711;28;20430;-67
2024/02/24 02:19:03;;;;;;;1.80;1.17;;;7.80;99.90;;;;;;5019760;28;20424;-67
2024/02/24 02:21:35;;;;;;;1.93;1.10;;;7.70;99.90;;;;;;5018807;28;20529;-66
2024/02/24 02:24:01;;;;;;;1.63;1.03;;;7.80;99.90;;;;;;5011454;28;20228;-67
2024/02/24 02:26:27;;;;;;;1.80;1.03;;;7.70;99.90;;;;;;5012210;28;20836;-67
2024/02/24 02:28:52;;;;;;;2.13;1.10;;;7.70;99.90;;;;;;5010672;28;20435;-66
2024/02/24 02:31:18;;;;;;;1.80;1.00;;;7.70;99.90;;;;;;5014228;28;20207;-67
2024/02/24 02:33:43;;;;;;;2.53;1.30;;;7.80;99.90;;;;;;5014266;28;20209;-67
2024/02/24 02:36:09;;;;;;;1.80;1.10;;;7.80;99.90;;;;;;5016283;28;20196;-67
2024/02/24 02:38:35;;;;;;;2.10;1.00;;;7.70;99.90;;;;;;5012898;28;20620;-67
2024/02/24 02:41:01;;;;;;;4.17;1.53;;;7.70;99.90;;;;;;5015788;28;20205;-67
2024/02/24 02:43:27;;;;;;;3.20;1.30;;;7.80;99.90;;;;;;5015443;28;20188;-67
2024/02/24 02:45:53;;;;;;;1.63;1.07;;;7.80;99.90;;;;;;5007921;28;20432;-67
2024/02/24 02:48:18;;;;;;;1.70;1.03;;;7.80;99.90;;;;;;5020148;28;20744;-67
2024/02/24 02:50:44;;;;;;;1.60;0.97;;;7.90;99.90;;;;;;5014454;28;20199;-67
2024/02/24 02:53:10;;;;;;;2.30;1.30;;;7.90;99.90;;;;;;5014996;28;20197;-67
2024/02/24 02:55:36;;;;;;;1.70;1.10;;;7.90;99.90;;;;;;5013403;28;20311;-67
2024/02/24 02:58:01;;;;;;;5.03;1.53;;;7.90;99.90;;;;;;5015647;28;20427;-67
2024/02/24 03:00:27;;;;;;;1.80;1.20;;;8.00;99.90;;;;;;5016241;28;20204;-67
2024/02/24 03:02:52;;;;;;;2.50;1.30;;;8.00;99.90;;;;;;5015315;28;20181;-67
2024/02/24 03:05:18;;;;;;;2.33;1.60;;;7.90;99.90;;;;;;5015089;28;20245;-66
2024/02/24 03:07:44;;;;;;;1.80;1.20;;;7.90;99.90;;;;;;5014963;28;20177;-66
2024/02/24 03:10:10;;;;;;;2.17;1.10;;;7.90;99.90;;;;;;5019705;28;20684;-67
2024/02/24 03:12:35;;;;;;;2.10;1.00;;;8.00;99.90;;;;;;5015244;28;20246;-67
2024/02/24 03:15:01;;;;;;;1.60;1.00;;;8.00;99.90;;;;;;5020511;28;20549;-68
2024/02/24 03:17:26;;;;;;;1.90;1.10;;;7.90;99.90;;;;;;5018923;28;20377;-67
2024/02/24 03:19:52;;;;;;;2.03;1.20;;;7.80;99.90;;;;;;5012619;28;20901;-68
2024/02/24 03:22:18;;;;;;;1.70;1.03;;;7.80;99.90;;;;;;5015765;28;20188;-68
2024/02/24 03:24:43;;;;;;;2.33;1.23;;;7.70;99.90;;;;;;5011448;28;20204;-67
2024/02/24 03:27:13;;;;;;;2.03;1.20;;;7.70;99.90;;;;;;5015052;28;20196;-67
2024/02/24 03:29:39;;;;;;;1.90;1.20;;;7.60;99.90;;;;;;5007714;28;20189;-68
2024/02/24 03:32:05;;;;;;;1.80;0.93;;;7.60;99.90;;;;;;5018027;28;20419;-67
2024/02/24 03:34:31;;;;;;;2.00;1.10;;;7.60;99.90;;;;;;5012472;28;20262;-68
2024/02/24 03:36:57;;;;;;;3.10;1.10;;;7.60;99.90;;;;;;5010800;28;20424;-67
2024/02/24 03:39:22;;;;;;;4.10;1.30;;;7.60;99.90;;;;;;5012028;28;20192;-66
2024/02/24 03:41:48;;;;;;;2.33;1.27;;;7.60;99.90;;;;;;5013113;28;20235;-67
2024/02/24 03:44:14;;;;;;;2.30;1.30;;;7.60;99.90;;;;;;5007992;28;20243;-67
2024/02/24 03:46:40;;;;;;;1.80;1.10;;;7.60;99.90;;;;;;5012308;28;20480;-67
2024/02/24 03:49:06;;;;;;;1.80;1.20;;;7.60;99.90;;;;;;5014352;28;20424;-67
2024/02/24 03:51:32;;;;;;;2.20;1.33;;;7.60;99.90;;;;;;5014182;28;20184;-67
2024/02/24 03:54:00;;;;;;;2.20;1.40;;;7.60;99.90;;;;;;5011268;28;20714;-67
2024/02/24 03:56:25;;;;;;;2.83;1.30;;;7.60;99.90;;;;;;5010887;28;20953;-66
2024/02/24 03:58:51;;;;;;;2.23;1.30;;;7.60;99.90;;;;;;5008811;28;20461;-67
2024/02/24 04:01:17;;;;;;;2.40;1.23;;;7.50;99.90;;;;;;5012529;28;20210;-68
2024/02/24 04:03:43;;;;;;;2.40;1.47;;;7.50;99.90;;;;;;5014638;28;20201;-68
2024/02/24 04:06:08;;;;;;;2.30;1.40;;;7.50;99.90;;;;;;5015204;28;20178;-68
2024/02/24 04:08:34;;;;;;;2.07;1.20;;;7.50;99.90;;;;;;5014558;28;20461;-68
2024/02/24 04:11:03;;;;;;;2.40;1.50;;;7.50;99.90;;;;;;5016689;28;20197;-67
2024/02/24 04:13:28;;;;;;;1.90;1.37;;;7.50;99.90;;;;;;5018943;28;20190;-67
2024/02/24 04:15:54;;;;;;;2.63;1.23;;;7.40;99.90;;;;;;5017861;28;20545;-67
2024/02/24 04:18:20;;;;;;;2.23;1.30;;;7.40;99.90;;;;;;5019459;28;20246;-68
2024/02/24 04:20:46;;;;;;;1.80;1.10;;;7.40;99.90;;;;;;5014128;28;20221;-67
2024/02/24 04:23:12;;;;;;;3.00;1.57;;;7.40;99.90;;;;;;5013653;28;20188;-67
2024/02/24 04:25:38;;;;;;;2.13;1.57;;;7.50;99.90;;;;;;5016770;28;20438;-68
2024/02/24 04:28:04;;;;;;;2.07;1.27;;;7.50;99.90;;;;;;5015874;28;20420;-67
2024/02/24 04:30:29;;;;;;;1.90;1.30;;;7.50;99.90;;;;;;5013426;28;20185;-67
2024/02/24 04:32:55;;;;;;;1.70;1.10;;;7.50;99.90;;;;;;5012417;28;20587;-67
2024/02/24 04:35:23;;;;;;;2.73;1.30;;;7.50;99.90;;;;;;5013835;28;20201;-68
2024/02/24 04:37:49;;;;;;;2.53;1.20;;;7.40;99.90;;;;;;5016663;28;20470;-67
2024/02/24 04:40:14;;;;;;;3.97;1.60;;;7.40;99.90;;;;;;5014625;28;20502;-67
2024/02/24 04:42:40;;;;;;;2.63;1.57;;;7.40;99.90;;;;;;5021120;28;20415;-67
2024/02/24 04:45:06;;;;;;;2.03;1.10;;;7.40;99.90;;;;;;5019852;28;20283;-67
2024/02/24 04:47:32;;;;;;;2.53;1.60;;;7.40;99.90;;;;;;5016872;28;20518;-67
2024/02/24 04:49:58;;;;;;;2.10;1.13;;;7.40;99.90;;;;;;5015467;28;20427;-67
2024/02/24 04:52:24;;;;;;;2.90;1.30;;;7.40;99.90;;;;;;5017907;28;20177;-67
2024/02/24 04:54:50;;;;;;;1.97;1.13;;;7.40;99.90;;;;;;5017117;28;20224;-68
2024/02/24 04:57:15;;;;;;;2.00;1.23;;;7.40;99.90;;;;;;5023308;28;20458;-68
2024/02/24 04:59:41;;;;;;;2.30;1.30;;;7.40;99.90;;;;;;5017962;28;20216;-67
2024/02/24 05:02:07;;;;;;;2.87;1.27;;;7.40;99.90;;;;;;5018427;28;20561;-67
2024/02/24 05:04:33;;;;;;;2.10;1.40;;;7.40;99.90;;;;;;5015271;28;20215;-67
2024/02/24 05:06:58;;;;;;;1.87;1.20;;;7.40;99.90;;;;;;5015293;28;20180;-67
2024/02/24 05:09:24;;;;;;;3.40;1.53;;;7.40;99.90;;;;;;5014302;28;20515;-67
2024/02/24 05:11:49;;;;;;;2.73;1.30;;;7.40;99.90;;;;;;5016989;28;20173;-67
2024/02/24 05:14:18;;;;;;;2.10;1.40;;;7.40;99.90;;;;;;5013961;28;20236;-67
2024/02/24 05:16:44;;;;;;;1.90;1.17;;;7.30;99.90;;;;;;5012532;28;20188;-68
2024/02/24 05:19:10;;;;;;;2.90;1.47;;;7.30;99.90;;;;;;5012037;28;21116;-67
2024/02/24 05:21:36;;;;;;;2.60;1.40;;;7.30;99.90;;;;;;5017333;28;20466;-68
2024/02/24 05:24:02;;;;;;;2.37;1.43;;;7.40;99.90;;;;;;5015368;28;20200;-67
2024/02/24 05:26:29;;;;;;;3.97;1.37;;;7.40;99.90;;;;;;5015828;28;20959;-67
2024/02/24 05:28:55;;;;;;;2.60;1.30;;;7.40;99.90;;;;;;5016795;28;20435;-67
2024/02/24 05:31:21;;;;;;;1.80;1.10;;;7.50;99.90;;;;;;5014772;28;20443;-65
2024/02/24 05:33:49;;;;;;;3.57;1.47;;;7.50;99.90;;;;;;5015515;28;20474;-66
2024/02/24 05:36:14;;;;;;;2.20;1.30;;;7.50;99.90;;;;;;5013400;28;20443;-67
2024/02/24 05:38:40;;;;;;;1.70;1.10;;;7.50;99.90;;;;;;5017276;28;20470;-67
2024/02/24 05:41:06;;;;;;;2.20;1.23;;;7.50;99.90;;;;;;5014862;28;20212;-66
2024/02/24 05:43:35;;;;;;;3.60;1.70;;;7.50;99.90;;;;;;5017130;28;20435;-67
2024/02/24 05:46:06;;;;;;;2.30;1.57;;;7.60;99.90;;;;;;5018960;28;20188;-67
2024/02/24 05:48:38;;;;;;;1.70;1.10;;;7.60;99.90;;;;;;5015640;28;20786;-66
2024/02/24 05:51:10;;;;;;;2.20;1.40;;;7.50;99.90;;;;;;5014953;28;20455;-66
2024/02/24 05:53:40;;;;;;;2.03;1.40;;;7.50;99.90;;;;;;5017295;28;20451;-67
2024/02/24 05:56:06;;;;;;;3.80;1.67;;;7.50;99.90;;;;;;5014443;28;20410;-67
2024/02/24 05:58:31;;;;;;;2.87;1.80;;;7.60;99.90;;;;;;5018417;28;20639;-66
2024/02/24 06:00:57;;;;;;;2.70;1.53;;;7.60;99.90;;;;;;5012743;28;20209;-66
2024/02/24 06:03:23;;;;;;;2.10;1.53;;;7.60;99.90;;;;;;5013038;28;20177;-67
2024/02/24 06:05:49;;;;;;;2.40;1.50;;;7.60;99.90;;;;;;5007548;28;20180;-67
2024/02/24 06:08:14;;;;;;;2.07;1.30;;;7.70;99.90;;;;;;5017751;28;20554;-67
2024/02/24 06:10:40;;;;;;;2.30;1.70;;;7.70;99.90;;;;;;5014366;28;20276;-67
2024/02/24 06:13:07;;;;;;;2.60;1.40;;;7.70;99.90;;;;;;5015922;28;20184;-67
2024/02/24 06:15:32;;;;;;;3.10;1.67;;;7.70;99.90;;;;;;5017133;28;20664;-67
2024/02/24 06:17:58;;;;;;;2.20;1.40;;;7.70;99.90;;;;;;5016432;28;20415;-66
2024/02/24 06:20:25;;;;;;;2.30;1.40;;;7.70;99.90;;;;;;5013004;28;20204;-67
2024/02/24 06:22:51;;;;;;;2.90;1.40;;;7.70;99.90;;;;;;5015251;28;20200;-67
2024/02/24 06:25:16;;;;;;;1.80;1.33;;;7.80;99.90;;;;;;5016498;28;20497;-67
2024/02/24 06:27:42;;;;;;;3.23;1.27;;;7.70;99.90;;;;;;5017406;28;20188;-67
2024/02/24 06:30:08;;;;;;;4.83;1.80;;;7.80;99.90;;;;;;5016224;28;20185;-67
2024/02/24 06:32:34;;;;;;;2.67;1.70;;;7.70;99.90;;;;;;5013075;28;20192;-67
2024/02/24 06:34:59;;;;;;;2.70;1.63;;;7.70;99.90;;;;;;5012568;28;21012;-68
2024/02/24 06:37:25;;;;;;;3.40;2.03;;;7.70;99.90;;;;;;5018080;28;20275;-66
2024/02/24 06:39:50;;;;;;;2.23;1.60;;;7.60;99.90;;;;;;5015993;28;20662;-68
2024/02/24 06:42:16;;;;;;;2.60;1.50;;;7.60;99.90;;;;;;5007924;28;20267;-68
2024/02/24 06:44:42;;;;;;;2.43;1.50;;;7.50;99.90;;;;;;5014115;28;20243;-68
2024/02/24 06:47:08;;;;;;;2.80;1.80;;;7.40;99.90;;;;;;5014539;28;20701;-68
2024/02/24 06:49:34;;;;;;;2.50;1.70;;;7.50;99.90;;;;;;5017267;28;20218;-68
2024/02/24 06:51:59;;;;;;;2.03;1.53;;;7.50;99.90;;;;;;5012581;28;21024;-68
2024/02/24 06:54:25;;;;;;;2.47;1.40;;;7.60;99.90;;;;;;5009861;28;20225;-68
2024/02/24 06:56:51;;;;;;;2.50;1.40;;;7.60;99.90;;;;;;5012160;28;20183;-67
2024/02/24 06:59:16;;;;;;;3.60;1.80;;;7.70;99.90;;;;;;5006504;28;20304;-67
2024/02/24 07:01:42;;;;;;;2.23;1.40;;;7.70;99.90;;;;;;5012193;28;20640;-67
2024/02/24 07:04:08;;;;;;;2.10;1.60;;;7.70;99.90;;;;;;5015425;28;20204;-67
2024/02/24 07:06:33;;;;;;;2.47;1.60;;;7.60;99.90;;;;;;5011127;28;20209;-67
2024/02/24 07:08:59;;;;;;;2.90;1.90;;;7.70;99.90;;;;;;5017863;28;20192;-67
2024/02/24 07:11:25;;;;;;;3.23;1.60;;;7.70;99.90;;;;;;5011323;28;20192;-67
2024/02/24 07:13:50;;;;;;;2.60;1.50;;;7.70;99.90;;;;;;5012525;28;20196;-68
2024/02/24 07:16:16;;;;;;;2.47;1.80;;;7.70;99.90;;;;;;5017156;28;20208;-68
2024/02/24 07:18:42;;;;;;;2.70;1.70;;;7.70;99.90;;;;;;5009915;28;20707;-67
2024/02/24 07:21:07;;;;;;;2.30;1.73;;;7.60;99.90;;;;;;5013410;28;20212;-67
2024/02/24 07:23:33;;;;;;;3.03;1.67;;;7.60;99.90;;;;;;5016388;28;21286;-67
2024/02/24 07:26:02;;;;;;;3.40;2.13;;;7.60;99.90;;;;;;5012780;28;20798;-66
2024/02/24 07:28:29;;;;;;;2.80;1.70;;;7.60;99.90;;;;;;5012988;28;20208;-66
2024/02/24 07:30:54;;;;;;;2.80;1.73;;;7.60;99.90;;;;;;5010560;28;20426;-67
2024/02/24 07:33:21;;;;;;;2.70;1.80;;;7.70;99.90;;;;;;5007172;28;20435;-67
2024/02/24 07:35:47;;;;;;;3.83;1.60;;;7.60;99.90;;;;;;5012897;28;20264;-68
2024/02/24 07:38:12;;;;;;;2.40;1.80;;;7.60;99.90;;;;;;5014094;28;20981;-67
2024/02/24 07:40:38;;;;;;;2.20;1.50;;;7.60;99.90;;;;;;5012376;28;20717;-68
2024/02/24 07:43:03;;;;;;;1.93;1.40;;;7.70;99.90;;;;;;5013403;28;20180;-68
2024/02/24 07:45:29;;;;;;;3.90;1.70;;;7.80;99.90;;;;;;5012733;28;20220;-68
2024/02/24 07:47:55;;;;;;;3.30;1.40;;;8.00;99.90;;;;;;5018956;28;20183;-68
2024/02/24 07:50:20;;;;;;;2.13;1.33;;;8.10;99.90;;;;;;5011657;28;20220;-68
2024/02/24 07:52:46;;;;;;;1.70;1.20;;;8.10;99.90;;;;;;5010862;28;20248;-68
2024/02/24 07:55:12;;;;;;;2.13;1.37;;;8.10;99.90;;;;;;5013978;28;20211;-68
2024/02/24 07:57:38;;;;;;;2.70;1.23;;;8.20;99.90;;;;;;5011768;28;20690;-68
2024/02/24 08:00:04;;;;;;;4.33;1.50;;;8.20;99.90;;;;;;5010497;28;20467;-67
2024/02/24 08:02:31;;;;;;;2.00;1.37;;;8.20;99.90;;;;;;5011922;28;20427;-67
2024/02/24 08:04:57;;;;;;;2.33;1.47;;;8.30;99.90;;;;;;5010003;28;20525;-67
2024/02/24 08:07:23;;;;;;;2.80;1.27;;;8.40;99.90;;;;;;5010599;28;20453;-67
2024/02/24 08:09:48;;;;;;;1.80;1.30;;;8.40;99.90;;;;;;5015832;28;20534;-67
2024/02/24 08:12:14;;;;;;;2.30;1.27;;;8.20;99.90;;;;;;5015237;28;20197;-67
2024/02/24 08:14:40;;;;;;;1.70;1.10;;;8.20;99.90;;;;;;5015822;28;20677;-67
2024/02/24 08:17:06;;;;;;;1.97;1.10;;;8.40;99.90;;;;;;5016841;28;20264;-67
2024/02/24 08:19:33;;;;;;;1.83;1.10;;;8.40;99.90;;;;;;5014184;28;20562;-67
2024/02/24 08:22:00;;;;;;;2.07;1.27;;;8.40;99.90;;;;;;5016380;28;20428;-69
2024/02/24 08:24:25;;;;;;;2.00;1.10;;;8.50;99.90;;;;;;5012702;28;20522;-67
2024/02/24 08:26:51;;;;;;;2.03;1.50;;;8.40;99.90;;;;;;5007569;28;20945;-67
2024/02/24 08:29:17;;;;;;;1.90;1.20;;;8.40;99.90;;;;;;5009884;28;20188;-67
2024/02/24 08:31:42;;;;;;;1.80;1.20;;;8.40;99.90;;;;;;5013205;28;20187;-67
2024/02/24 08:34:09;;;;;;;2.60;1.47;;;8.50;99.90;;;;;;5010862;28;20564;-67
2024/02/24 08:36:35;;;;;;;1.77;1.20;;;8.50;99.90;;;;;;5006577;28;20180;-66
2024/02/24 08:39:01;;;;;;;1.80;1.20;;;8.50;99.90;;;;;;5011776;28;20419;-67
2024/02/24 08:41:27;;;;;;;1.90;1.30;;;8.50;99.90;;;;;;5006501;28;20490;-67
2024/02/24 08:43:53;;;;;;;2.10;1.20;;;8.60;99.90;;;;;;5013321;28;21106;-68
2024/02/24 08:46:21;;;;;;;2.00;1.27;;;8.30;99.90;;;;;;5010486;28;20508;-68
2024/02/24 08:48:47;;;;;;;2.57;1.30;;;8.20;99.90;;;;;;5014901;28;20177;-68
2024/02/24 08:51:13;;;;;;;3.67;1.20;;;8.20;99.90;;;;;;5018066;28;20442;-67
2024/02/24 08:53:38;;;;;;;2.67;1.27;;;8.20;99.90;;;;;;5016298;28;20211;-67
2024/02/24 08:56:05;;;;;;;1.83;1.30;;;8.00;99.90;;;;;;5016364;28;20285;-68
2024/02/24 08:58:31;;;;;;;2.30;1.10;;;8.00;99.90;;;;;;5019234;28;20682;-67
2024/02/24 09:00:58;;;;;;;3.60;1.23;;;7.90;99.90;;;;;;5012114;28;20604;-66
2024/02/24 09:03:24;;;;;;;2.80;1.40;;;8.00;99.90;;;;;;5014960;28;20426;-66
2024/02/24 09:05:49;;;;;;;2.50;1.40;;;8.20;99.90;;;;;;5016770;28;20411;-65
2024/02/24 09:08:15;;;;;;;2.30;1.10;;;8.30;99.90;;;;;;5021548;28;20939;-67
2024/02/24 09:10:41;;;;;;;2.30;1.20;;;8.50;99.90;;;;;;5014204;28;20558;-67
2024/02/24 09:13:08;;;;;;;2.10;1.20;;;8.50;99.90;;;;;;5016987;28;20979;-67
2024/02/24 09:15:33;;;;;;;2.07;1.30;;;8.40;99.90;;;;;;5020117;28;20454;-66
2024/02/24 09:17:59;;;;;;;2.47;1.50;;;8.40;99.90;;;;;;5016942;28;20507;-67
2024/02/24 09:20:26;;;;;;;2.80;1.20;;;8.40;99.90;;;;;;5014509;28;20546;-67
2024/02/24 09:22:51;;;;;;;1.90;1.20;;;8.30;99.90;;;;;;5017187;28;20183;-66
2024/02/24 09:25:17;;;;;;;1.87;1.27;;;8.30;99.90;;;;;;5017127;28;20881;-67
2024/02/24 09:27:43;;;;;;;1.90;1.17;;;8.40;99.90;;;;;;5014883;28;20269;-67
2024/02/24 09:30:12;;;;;;;2.70;1.20;;;8.40;99.90;;;;;;5016987;28;20183;-67
2024/02/24 09:32:41;;;;;;;2.37;1.30;;;8.40;99.90;;;;;;5013806;28;20477;-67
2024/02/24 09:35:08;;;;;;;2.40;1.30;;;8.70;99.90;;;;;;5018131;28;20466;-67
2024/02/24 09:37:37;;;;;;;4.53;1.50;;;8.80;99.90;;;;;;5016751;28;20431;-67
2024/02/24 09:40:05;;;;;;;2.57;1.37;;;8.80;99.90;;;;;;5009874;28;21131;-67
2024/02/24 09:42:31;;;;;;;1.90;1.20;;;8.90;99.90;;;;;;5015712;28;20507;-67
2024/02/24 09:45:03;;;;;;;1.97;1.30;;;9.00;99.90;;;;;;5011926;28;20694;-67
2024/02/24 09:47:30;;;;;;;2.03;1.40;;;8.90;99.90;;;;;;5013261;28;20185;-67
2024/02/24 09:50:00;;;;;;;3.57;1.50;;;8.90;99.90;;;;;;5011473;28;20435;-67
2024/02/24 09:52:26;;;;;;;2.70;1.40;;;9.00;99.90;;;;;;5015712;28;20420;-67
2024/02/24 09:54:51;;;;;;;1.70;1.13;;;9.00;99.90;;;;;;5019101;28;20807;-67
2024/02/24 09:57:20;;;;;;;1.80;1.30;;;9.10;99.90;;;;;;5022687;28;20422;-67
2024/02/24 09:59:48;;;;;;;2.77;2.17;;;9.00;99.90;;;;;;5015301;28;20283;-67
2024/02/24 10:02:14;;;;;;;2.53;1.37;;;9.00;99.90;;;;;;5016253;28;20451;-67
2024/02/24 10:04:39;;;;;;;2.87;1.30;;;8.90;99.90;;;;;;5013876;28;20567;-66
2024/02/24 10:07:05;;;;;;;1.90;1.20;;;9.00;99.90;;;;;;5014617;28;20499;-66
2024/02/24 10:09:32;;;;;;;3.20;1.30;;;9.10;99.90;;;;;;5018994;28;20667;-66
2024/02/24 10:11:57;;;;;;;2.87;1.47;;;9.10;99.90;;;;;;5016709;28;20412;-66
2024/02/24 10:14:23;;;;;;;2.30;1.30;;;9.30;99.90;;;;;;5015702;28;20492;-68
2024/02/24 10:16:52;;;;;;;2.50;1.20;;;9.30;99.90;;;;;;5016901;28;20304;-68
2024/02/24 10:19:18;;;;;;;3.10;1.77;;;9.40;99.90;;;;;;5013291;28;20288;-67
2024/02/24 10:21:43;;;;;;;2.20;1.40;;;9.60;99.90;;;;;;5015103;28;20497;-68
2024/02/24 10:24:09;;;;;;;2.53;1.43;;;9.70;99.90;;;;;;5016002;28;20249;-67
2024/02/24 10:26:34;;;;;;;2.37;1.40;;;9.70;99.90;;;;;;5015729;28;20788;-68
2024/02/24 10:29:06;;;;;;;2.60;1.50;;;9.60;99.90;;;;;;5016503;28;20246;-67
2024/02/24 10:31:33;;;;;;;2.13;1.40;;;9.60;99.90;;;;;;5015972;28;20561;-68
2024/02/24 10:34:03;;;;;;;3.07;1.50;;;9.40;99.90;;;;;;5016829;28;20461;-69
2024/02/24 10:36:29;;;;;;;2.10;1.30;;;9.40;99.90;;;;;;5012045;28;20444;-67
2024/02/24 10:38:57;;;;;;;2.90;1.70;;;9.50;99.90;;;;;;5010201;28;20887;-67
2024/02/24 10:41:23;;;;;;;2.40;1.70;;;9.60;99.90;;;;;;5008635;28;20512;-68
2024/02/24 10:43:50;;;;;;;5.00;2.00;;;9.80;99.90;;;;;;5012518;28;20451;-67
2024/02/24 10:46:16;;;;;;;5.80;1.90;;;9.90;99.90;;;;;;5012141;28;20625;-67
2024/02/24 10:48:42;;;;;;;2.90;1.90;;;10.00;99.90;;;;;;5009135;28;20424;-67
2024/02/24 10:51:11;;;;;;;2.67;1.83;;;10.20;99.90;;;;;;5011102;28;20839;-67
2024/02/24 10:53:38;;;;;;;2.40;1.50;;;10.10;99.90;;;;;;5012603;28;20447;-67
2024/02/24 10:56:04;;;;;;;3.90;1.70;;;10.00;99.90;;;;;;5011817;28;20432;-67
2024/02/24 10:58:31;;;;;;;2.67;1.70;;;9.90;99.90;;;;;;5014270;28;20427;-67
2024/02/24 11:00:58;;;;;;;2.70;1.73;;;9.90;99.90;;;;;;5007393;28;20474;-67
2024/02/24 11:03:23;;;;;;;6.97;1.53;;;9.90;99.90;;;;;;5012357;28;21078;-68
2024/02/24 11:05:50;;;;;;;2.30;1.50;;;9.90;99.90;;;;;;5010342;28;20420;-65
2024/02/24 11:08:45;;;;;;;3.40;1.53;;;10.20;99.90;;;;;;5013439;28;20177;-67
2024/02/24 11:11:12;;;;;;;3.93;2.00;;;10.30;99.90;;;;;;5007177;28;20439;-67
2024/02/24 11:13:48;;;;;;;2.07;1.47;;;10.30;99.90;;;;;;5013312;28;20459;-67
2024/02/24 11:16:15;;;;;;;2.37;1.73;;;10.60;99.90;;;;;;5008274;28;20941;-67
2024/02/24 11:18:47;;;;;;;2.90;1.63;;;10.70;99.90;;;;;;5010378;28;20428;-67
2024/02/24 11:21:13;;;;;;;2.53;1.90;;;10.70;99.90;;;;;;5011996;28;20458;-67
2024/02/24 11:23:43;;;;;;;3.13;1.80;;;10.70;99.90;;;;;;5012670;28;20855;-67
2024/02/24 11:26:30;;;;;;;3.90;2.00;;;10.80;99.90;;;;;;5008683;28;20423;-67
2024/02/24 11:29:08;;;;;;;3.77;2.07;;;10.90;99.90;;;;;;5010043;28;20420;-67
2024/02/24 11:31:35;;;;;;;2.20;1.60;;;11.00;99.90;;;;;;5009923;28;20458;-67
2024/02/24 11:34:07;;;;;;;2.50;1.50;;;10.90;99.90;;;;;;5008699;28;20456;-66
2024/02/24 11:36:36;;;;;;;8.27;4.07;;;10.90;99.90;;;;;;5010303;28;20442;-66
2024/02/24 11:39:03;;;;;;;3.97;2.13;;;11.00;99.90;;;;;;5009820;28;20450;-67
2024/02/24 11:41:29;;;;;;;5.30;2.20;;;10.90;99.90;;;;;;5015219;28;20518;-67
2024/02/24 11:43:55;;;;;;;2.97;2.27;;;10.90;99.90;;;;;;5010465;28;20511;-66
2024/02/24 11:46:21;;;;;;;3.47;1.87;;;11.00;99.90;;;;;;5012749;28;20415;-66
2024/02/24 11:48:49;;;;;;;3.50;2.27;;;11.00;99.90;;;;;;5009781;28;20450;-66
2024/02/24 11:51:15;;;;;;;2.20;1.50;;;11.10;99.90;;;;;;5011584;28;20514;-66
2024/02/24 11:53:40;;;;;;;2.63;1.70;;;11.10;99.90;;;;;;5010043;28;20553;-66
2024/02/24 11:56:06;;;;;;;2.77;1.73;;;11.20;99.90;;;;;;5010072;28;20278;-66
2024/02/24 11:58:32;;;;;;;2.90;2.07;;;11.10;99.90;;;;;;5017280;28;20181;-67
2024/02/24 12:00:57;;;;;;;2.67;1.90;;;11.30;99.90;;;;;;5014511;28;20670;-67
2024/02/24 12:03:23;;;;;;;2.60;1.70;;;11.30;99.90;;;;;;5014607;28;20182;-67
2024/02/24 12:05:49;;;;;;;3.63;1.90;;;11.30;99.90;;;;;;5010423;28;21031;-67
2024/02/24 12:08:18;;;;;;;3.60;1.53;;;11.30;99.90;;;;;;5014068;28;20216;-67
2024/02/24 12:10:44;;;;;;;2.10;1.50;;;11.10;99.90;;;;;;5005046;28;20323;-67
2024/02/24 12:13:12;;;;;;;4.93;1.97;;;11.00;99.90;;;;;;5009277;28;20921;-67
2024/02/24 12:15:40;;;;;;;3.17;1.97;;;10.90;99.90;;;;;;5009406;28;20227;-67
2024/02/24 12:18:06;;;;;;;5.70;1.67;;;10.90;99.90;;;;;;5005629;28;20428;-67
2024/02/24 12:20:39;;;;;;;2.53;1.70;;;11.00;99.90;;;;;;5011853;28;20542;-67
2024/02/24 12:23:06;;;;;;;5.80;1.80;;;11.00;99.90;;;;;;5009150;28;20427;-67
2024/02/24 12:25:33;;;;;;;1.90;1.50;;;10.90;99.90;;;;;;5002256;28;20803;-67
2024/02/24 12:28:03;;;;;;;4.53;2.10;;;11.00;99.90;;;;;;5014886;28;22396;-67
2024/02/24 12:30:35;;;;;;;2.37;1.60;;;11.10;99.90;;;;;;5016304;28;20450;-67
2024/02/24 12:33:04;;;;;;;3.73;2.20;;;11.30;99.90;;;;;;5015836;28;20492;-67
2024/02/24 12:35:30;;;;;;;2.53;1.70;;;11.40;99.90;;;;;;5013030;28;21295;-67
2024/02/24 12:37:56;;;;;;;3.87;1.90;;;12.30;99.90;;;;;;5015649;28;20442;-67
2024/02/24 12:40:28;;;;;;;5.40;1.80;;;12.30;99.90;;;;;;5026108;28;20549;-67
2024/02/24 12:42:54;;;;;;;2.30;1.50;;;11.80;99.90;;;;;;5018152;28;20188;-67
2024/02/24 12:45:20;;;;;;;2.87;1.77;;;11.60;99.90;;;;;;5017394;28;20464;-67
2024/02/24 12:47:49;;;;;;;2.13;1.60;;;11.40;99.90;;;;;;5020991;28;20426;-67
2024/02/24 12:50:19;;;;;;;2.37;1.60;;;11.50;99.90;;;;;;5017522;28;20659;-67